Terminal Aerodrome Forecast
Issued by NWS

Home | Current Version | Previous Version | Text Only | Print | Product List | Glossary On
Versions: 1 2 3 4 5 6 7 8 9 10 11 12 13 14 15 16 17 18 19 20
173
FTUS46 KSGX 241127
TAFCRQ
TAF
KCRQ 241127Z 2412/2512 26007KT P6SM VCSH SCT030 BKN040
      TEMPO 2417/2421 5SM SHRA SCT015 BKN025
     FM250100 VRB04KT P6SM SCT025 BKN040
     FM250700 VRB03KT P6SM SCT025 SCT035=

USA.gov is the U.S. government's official web portal to all federal, state and local government web resources and services.